Paraty, Brazil
Current Conditions -  °F | °C
As of 12:00 PM on Friday 28 Nov 2014 (Local Time) from SBGW Reporting Station
Overcast Overcast  
Wind Chill: 77°   Ceiling: 1500
Heat Index: 79°   Visibility: 5mi
Dew Point: 64°   Wind: 5mph
Humidity: 65%   Direction: 240°WSW
Pressure: 30.06"   Gusts: NA
Location:  23.22°S, 44.71°W
Report Text: SBGW 281400Z 24004KT 8000 BKN015 OVC020 25/18 Q1018
Loading
Personal Weather Stations






























Interactive Weather Map New forecast layout! Learn more

10-Day Weather Forecast

Advertisements
Track Severe Weather on mobile